<?xml version="1.0" encoding="UTF-8" standalone="no" ?>
<gpx xmlns="http://www.topografix.com/GPX/1/1" xmlns:xsi="http://www.w3.org/2001/XMLSchema-instance" xsi:schemaLocation="http://www.topografix.com/GPX/1/1 http://www.topografix.com/GPX/1/1/gpx.xsd" version="1.1" creator="VisuGPX - https://www.visugpx.com">
  <metadata>
    <name>Jasse des lièvres</name>
  </metadata>
  <trk>
    <name><![CDATA[Jasse des lièvres]]></name>
    <trkseg>
      <trkpt lat="45.24761" lon="5.99428">
        <ele>1349.638916</ele>
        <time>2009-12-06T07:14:14Z</time>
      </trkpt>
      <trkpt lat="45.24761" lon="5.99421">
        <ele>1345.1062012</ele>
        <time>2009-12-06T07:14:28Z</time>
      </trkpt>
      <trkpt lat="45.24762" lon="5.99425">
        <ele>1348.0634766</ele>
        <time>2009-12-06T07:14:43Z</time>
      </trkpt>
      <trkpt lat="45.24758" lon="5.99436">
        <ele>1355.3908691</ele>
        <time>2009-12-06T07:14:59Z</time>
      </trkpt>
      <trkpt lat="45.24751" lon="5.99455">
        <ele>1364.4272461</ele>
        <time>2009-12-06T07:15:14Z</time>
      </trkpt>
      <trkpt lat="45.24743" lon="5.99477">
        <ele>1369.7020264</ele>
        <time>2009-12-06T07:15:36Z</time>
      </trkpt>
      <trkpt lat="45.24744" lon="5.99496">
        <ele>1376.0402832</ele>
        <time>2009-12-06T07:16:08Z</time>
      </trkpt>
      <trkpt lat="45.24779" lon="5.99498">
        <ele>1380.5465088</ele>
        <time>2009-12-06T07:16:49Z</time>
      </trkpt>
      <trkpt lat="45.24808" lon="5.99512">
        <ele>1389.2127686</ele>
        <time>2009-12-06T07:17:35Z</time>
      </trkpt>
      <trkpt lat="45.24785" lon="5.99509">
        <ele>1386.1898193</ele>
        <time>2009-12-06T07:17:53Z</time>
      </trkpt>
      <trkpt lat="45.24767" lon="5.99508">
        <ele>1383.748291</ele>
        <time>2009-12-06T07:20:11Z</time>
      </trkpt>
      <trkpt lat="45.24715" lon="5.99521">
        <ele>1381.612915</ele>
        <time>2009-12-06T07:20:53Z</time>
      </trkpt>
      <trkpt lat="45.24691" lon="5.99524">
        <ele>1377.1392822</ele>
        <time>2009-12-06T07:21:14Z</time>
      </trkpt>
      <trkpt lat="45.2469" lon="5.99524">
        <ele>1376.9233398</ele>
        <time>2009-12-06T07:21:15Z</time>
      </trkpt>
      <trkpt lat="45.24663" lon="5.99549">
        <ele>1380.8012695</ele>
        <time>2009-12-06T07:21:41Z</time>
      </trkpt>
      <trkpt lat="45.24625" lon="5.99587">
        <ele>1385.5512695</ele>
        <time>2009-12-06T07:22:25Z</time>
      </trkpt>
      <trkpt lat="45.24606" lon="5.99611">
        <ele>1389.2988281</ele>
        <time>2009-12-06T07:22:51Z</time>
      </trkpt>
      <trkpt lat="45.24543" lon="5.99662">
        <ele>1391.2491455</ele>
        <time>2009-12-06T07:23:36Z</time>
      </trkpt>
      <trkpt lat="45.24529" lon="5.99685">
        <ele>1392.9887695</ele>
        <time>2009-12-06T07:23:56Z</time>
      </trkpt>
      <trkpt lat="45.24508" lon="5.9972">
        <ele>1394.3504639</ele>
        <time>2009-12-06T07:24:23Z</time>
      </trkpt>
      <trkpt lat="45.24477" lon="5.99741">
        <ele>1390.4937744</ele>
        <time>2009-12-06T07:24:50Z</time>
      </trkpt>
      <trkpt lat="45.24442" lon="5.99802">
        <ele>1395.0529785</ele>
        <time>2009-12-06T07:25:38Z</time>
      </trkpt>
      <trkpt lat="45.24409" lon="5.99845">
        <ele>1399.9783936</ele>
        <time>2009-12-06T07:26:24Z</time>
      </trkpt>
      <trkpt lat="45.24385" lon="5.99854">
        <ele>1406.1263428</ele>
        <time>2009-12-06T07:26:53Z</time>
      </trkpt>
      <trkpt lat="45.24378" lon="5.99863">
        <ele>1410.7398682</ele>
        <time>2009-12-06T07:27:13Z</time>
      </trkpt>
      <trkpt lat="45.24391" lon="5.99865">
        <ele>1407.8999023</ele>
        <time>2009-12-06T07:27:35Z</time>
      </trkpt>
      <trkpt lat="45.24396" lon="5.99877">
        <ele>1411.0216064</ele>
        <time>2009-12-06T07:27:52Z</time>
      </trkpt>
      <trkpt lat="45.24394" lon="5.9989">
        <ele>1415.2686768</ele>
        <time>2009-12-06T07:28:17Z</time>
      </trkpt>
      <trkpt lat="45.24384" lon="5.99909">
        <ele>1421.4295654</ele>
        <time>2009-12-06T07:28:36Z</time>
      </trkpt>
      <trkpt lat="45.24389" lon="5.99927">
        <ele>1425.239502</ele>
        <time>2009-12-06T07:28:57Z</time>
      </trkpt>
      <trkpt lat="45.24385" lon="5.99943">
        <ele>1429.2335205</ele>
        <time>2009-12-06T07:29:13Z</time>
      </trkpt>
      <trkpt lat="45.24385" lon="5.99962">
        <ele>1433.239502</ele>
        <time>2009-12-06T07:29:52Z</time>
      </trkpt>
      <trkpt lat="45.24377" lon="5.99997">
        <ele>1442.5269775</ele>
        <time>2009-12-06T07:30:37Z</time>
      </trkpt>
      <trkpt lat="45.24376" lon="6.00013">
        <ele>1447.5644531</ele>
        <time>2009-12-06T07:31:05Z</time>
      </trkpt>
      <trkpt lat="45.24367" lon="6.00034">
        <ele>1455.2651367</ele>
        <time>2009-12-06T07:31:54Z</time>
      </trkpt>
      <trkpt lat="45.24362" lon="6.00063">
        <ele>1462.161377</ele>
        <time>2009-12-06T07:32:21Z</time>
      </trkpt>
      <trkpt lat="45.24342" lon="6.00061">
        <ele>1472.5010986</ele>
        <time>2009-12-06T07:32:41Z</time>
      </trkpt>
      <trkpt lat="45.24338" lon="6.00072">
        <ele>1476.6611328</ele>
        <time>2009-12-06T07:33:01Z</time>
      </trkpt>
      <trkpt lat="45.24329" lon="6.00089">
        <ele>1483.8985596</ele>
        <time>2009-12-06T07:33:18Z</time>
      </trkpt>
      <trkpt lat="45.24316" lon="6.00114">
        <ele>1494.168335</ele>
        <time>2009-12-06T07:34:09Z</time>
      </trkpt>
      <trkpt lat="45.24335" lon="6.00125">
        <ele>1486.9331055</ele>
        <time>2009-12-06T07:34:41Z</time>
      </trkpt>
      <trkpt lat="45.24339" lon="6.00149">
        <ele>1489.9353027</ele>
        <time>2009-12-06T07:35:22Z</time>
      </trkpt>
      <trkpt lat="45.2434" lon="6.00181">
        <ele>1495.3505859</ele>
        <time>2009-12-06T07:36:04Z</time>
      </trkpt>
      <trkpt lat="45.24331" lon="6.00185">
        <ele>1498.3868408</ele>
        <time>2009-12-06T07:36:34Z</time>
      </trkpt>
      <trkpt lat="45.24341" lon="6.00194">
        <ele>1497.8382568</ele>
        <time>2009-12-06T07:36:49Z</time>
      </trkpt>
      <trkpt lat="45.2433" lon="6.00212">
        <ele>1504.9470215</ele>
        <time>2009-12-06T07:37:09Z</time>
      </trkpt>
      <trkpt lat="45.24331" lon="6.00214">
        <ele>1504.7524414</ele>
        <time>2009-12-06T07:37:26Z</time>
      </trkpt>
      <trkpt lat="45.24327" lon="6.00227">
        <ele>1509.927124</ele>
        <time>2009-12-06T07:37:51Z</time>
      </trkpt>
      <trkpt lat="45.24336" lon="6.00246">
        <ele>1511.6572266</ele>
        <time>2009-12-06T07:38:09Z</time>
      </trkpt>
      <trkpt lat="45.24307" lon="6.00257">
        <ele>1525.6791992</ele>
        <time>2009-12-06T07:38:29Z</time>
      </trkpt>
      <trkpt lat="45.24316" lon="6.00265">
        <ele>1524.7022705</ele>
        <time>2009-12-06T07:38:47Z</time>
      </trkpt>
      <trkpt lat="45.24345" lon="6.00285">
        <ele>1523.8675537</ele>
        <time>2009-12-06T07:39:24Z</time>
      </trkpt>
      <trkpt lat="45.24359" lon="6.00307">
        <ele>1528.9404297</ele>
        <time>2009-12-06T07:40:06Z</time>
      </trkpt>
      <trkpt lat="45.24358" lon="6.00324">
        <ele>1536.5441895</ele>
        <time>2009-12-06T07:40:29Z</time>
      </trkpt>
      <trkpt lat="45.24358" lon="6.00341">
        <ele>1543.4311523</ele>
        <time>2009-12-06T07:41:08Z</time>
      </trkpt>
      <trkpt lat="45.24363" lon="6.0034">
        <ele>1543.1191406</ele>
        <time>2009-12-06T07:41:44Z</time>
      </trkpt>
      <trkpt lat="45.24362" lon="6.00337">
        <ele>1541.6185303</ele>
        <time>2009-12-06T07:43:17Z</time>
      </trkpt>
      <trkpt lat="45.24368" lon="6.00349">
        <ele>1547.1499023</ele>
        <time>2009-12-06T07:43:32Z</time>
      </trkpt>
      <trkpt lat="45.24367" lon="6.00363">
        <ele>1552.6009521</ele>
        <time>2009-12-06T07:43:45Z</time>
      </trkpt>
      <trkpt lat="45.24366" lon="6.00374">
        <ele>1556.9404297</ele>
        <time>2009-12-06T07:44:00Z</time>
      </trkpt>
      <trkpt lat="45.24368" lon="6.00386">
        <ele>1562.355835</ele>
        <time>2009-12-06T07:44:34Z</time>
      </trkpt>
      <trkpt lat="45.24367" lon="6.004">
        <ele>1568.3227539</ele>
        <time>2009-12-06T07:44:48Z</time>
      </trkpt>
      <trkpt lat="45.24358" lon="6.00407">
        <ele>1571.6253662</ele>
        <time>2009-12-06T07:45:31Z</time>
      </trkpt>
      <trkpt lat="45.24353" lon="6.00414">
        <ele>1575.2927246</ele>
        <time>2009-12-06T07:45:56Z</time>
      </trkpt>
      <trkpt lat="45.2436" lon="6.00427">
        <ele>1580.2092285</ele>
        <time>2009-12-06T07:47:41Z</time>
      </trkpt>
      <trkpt lat="45.24373" lon="6.00443">
        <ele>1586.3830566</ele>
        <time>2009-12-06T07:47:59Z</time>
      </trkpt>
      <trkpt lat="45.24381" lon="6.00457">
        <ele>1591.8590088</ele>
        <time>2009-12-06T07:48:21Z</time>
      </trkpt>
      <trkpt lat="45.24376" lon="6.00466">
        <ele>1595.4467773</ele>
        <time>2009-12-06T07:48:37Z</time>
      </trkpt>
      <trkpt lat="45.24375" lon="6.00476">
        <ele>1599.7705078</ele>
        <time>2009-12-06T07:49:14Z</time>
      </trkpt>
      <trkpt lat="45.2438" lon="6.00492">
        <ele>1607.2773438</ele>
        <time>2009-12-06T07:49:48Z</time>
      </trkpt>
      <trkpt lat="45.2438" lon="6.00482">
        <ele>1602.5333252</ele>
        <time>2009-12-06T07:50:36Z</time>
      </trkpt>
      <trkpt lat="45.24386" lon="6.00491">
        <ele>1608.0634766</ele>
        <time>2009-12-06T07:50:59Z</time>
      </trkpt>
      <trkpt lat="45.24387" lon="6.00499">
        <ele>1612.4527588</ele>
        <time>2009-12-06T07:51:17Z</time>
      </trkpt>
      <trkpt lat="45.24392" lon="6.00507">
        <ele>1616.4111328</ele>
        <time>2009-12-06T07:51:33Z</time>
      </trkpt>
      <trkpt lat="45.24392" lon="6.00503">
        <ele>1614.927002</ele>
        <time>2009-12-06T07:51:58Z</time>
      </trkpt>
      <trkpt lat="45.24379" lon="6.0052">
        <ele>1620.1248779</ele>
        <time>2009-12-06T07:52:47Z</time>
      </trkpt>
      <trkpt lat="45.24374" lon="6.00532">
        <ele>1623.3554688</ele>
        <time>2009-12-06T07:53:14Z</time>
      </trkpt>
      <trkpt lat="45.24381" lon="6.00549">
        <ele>1629.6427002</ele>
        <time>2009-12-06T07:53:55Z</time>
      </trkpt>
      <trkpt lat="45.2437" lon="6.00558">
        <ele>1629.7006836</ele>
        <time>2009-12-06T07:54:27Z</time>
      </trkpt>
      <trkpt lat="45.24326" lon="6.00586">
        <ele>1628.7070313</ele>
        <time>2009-12-06T07:55:18Z</time>
      </trkpt>
      <trkpt lat="45.24309" lon="6.00608">
        <ele>1631.7145996</ele>
        <time>2009-12-06T07:55:40Z</time>
      </trkpt>
      <trkpt lat="45.24288" lon="6.0063">
        <ele>1634.4951172</ele>
        <time>2009-12-06T07:56:35Z</time>
      </trkpt>
      <trkpt lat="45.24288" lon="6.00647">
        <ele>1638.1584473</ele>
        <time>2009-12-06T07:57:10Z</time>
      </trkpt>
      <trkpt lat="45.24263" lon="6.00667">
        <ele>1643.1986084</ele>
        <time>2009-12-06T07:57:41Z</time>
      </trkpt>
      <trkpt lat="45.24273" lon="6.0069">
        <ele>1648.6099854</ele>
        <time>2009-12-06T07:58:16Z</time>
      </trkpt>
      <trkpt lat="45.24268" lon="6.00705">
        <ele>1653.0273438</ele>
        <time>2009-12-06T07:58:47Z</time>
      </trkpt>
      <trkpt lat="45.24262" lon="6.0072">
        <ele>1656.5206299</ele>
        <time>2009-12-06T07:59:04Z</time>
      </trkpt>
      <trkpt lat="45.24255" lon="6.00745">
        <ele>1661.0932617</ele>
        <time>2009-12-06T07:59:26Z</time>
      </trkpt>
      <trkpt lat="45.24236" lon="6.0078">
        <ele>1667.899292</ele>
        <time>2009-12-06T08:00:09Z</time>
      </trkpt>
      <trkpt lat="45.24229" lon="6.00803">
        <ele>1672.901001</ele>
        <time>2009-12-06T08:00:40Z</time>
      </trkpt>
      <trkpt lat="45.24228" lon="6.00828">
        <ele>1680.3824463</ele>
        <time>2009-12-06T08:01:17Z</time>
      </trkpt>
      <trkpt lat="45.24218" lon="6.00839">
        <ele>1681.6622314</ele>
        <time>2009-12-06T08:01:56Z</time>
      </trkpt>
      <trkpt lat="45.24183" lon="6.00857">
        <ele>1683.7689209</ele>
        <time>2009-12-06T08:02:20Z</time>
      </trkpt>
      <trkpt lat="45.24199" lon="6.00877">
        <ele>1695.7208252</ele>
        <time>2009-12-06T08:02:40Z</time>
      </trkpt>
      <trkpt lat="45.2421" lon="6.00924">
        <ele>1720.0942383</ele>
        <time>2009-12-06T08:11:11Z</time>
      </trkpt>
      <trkpt lat="45.24154" lon="6.00914">
        <ele>1711.6209717</ele>
        <time>2009-12-06T08:11:13Z</time>
      </trkpt>
      <trkpt lat="45.24148" lon="6.00915">
        <ele>1713.0820313</ele>
        <time>2009-12-06T08:11:26Z</time>
      </trkpt>
      <trkpt lat="45.24136" lon="6.00927">
        <ele>1724.3695068</ele>
        <time>2009-12-06T08:12:02Z</time>
      </trkpt>
      <trkpt lat="45.24145" lon="6.00956">
        <ele>1738.8720703</ele>
        <time>2009-12-06T08:12:23Z</time>
      </trkpt>
      <trkpt lat="45.2415" lon="6.00977">
        <ele>1747.9581299</ele>
        <time>2009-12-06T08:12:48Z</time>
      </trkpt>
      <trkpt lat="45.2415" lon="6.00996">
        <ele>1756.0754395</ele>
        <time>2009-12-06T08:13:32Z</time>
      </trkpt>
      <trkpt lat="45.24142" lon="6.01011">
        <ele>1762.8594971</ele>
        <time>2009-12-06T08:13:52Z</time>
      </trkpt>
      <trkpt lat="45.24129" lon="6.0101">
        <ele>1762.4760742</ele>
        <time>2009-12-06T08:14:09Z</time>
      </trkpt>
      <trkpt lat="45.24127" lon="6.01012">
        <ele>1763.4504395</ele>
        <time>2009-12-06T08:14:24Z</time>
      </trkpt>
      <trkpt lat="45.24086" lon="6.01008">
        <ele>1756.6334229</ele>
        <time>2009-12-06T08:14:52Z</time>
      </trkpt>
      <trkpt lat="45.24046" lon="6.01014">
        <ele>1756.3474121</ele>
        <time>2009-12-06T08:15:33Z</time>
      </trkpt>
      <trkpt lat="45.24021" lon="6.01052">
        <ele>1766.8149414</ele>
        <time>2009-12-06T08:16:02Z</time>
      </trkpt>
      <trkpt lat="45.23995" lon="6.01043">
        <ele>1767.1060791</ele>
        <time>2009-12-06T08:16:20Z</time>
      </trkpt>
      <trkpt lat="45.23981" lon="6.01035">
        <ele>1767.1801758</ele>
        <time>2009-12-06T08:16:59Z</time>
      </trkpt>
      <trkpt lat="45.23981" lon="6.01038">
        <ele>1767.7023926</ele>
        <time>2009-12-06T08:17:03Z</time>
      </trkpt>
      <trkpt lat="45.2399" lon="6.01068">
        <ele>1774.2275391</ele>
        <time>2009-12-06T08:17:27Z</time>
      </trkpt>
      <trkpt lat="45.23988" lon="6.01074">
        <ele>1776.1522217</ele>
        <time>2009-12-06T08:17:52Z</time>
      </trkpt>
      <trkpt lat="45.23994" lon="6.01073">
        <ele>1775.3930664</ele>
        <time>2009-12-06T08:18:21Z</time>
      </trkpt>
      <trkpt lat="45.23988" lon="6.01083">
        <ele>1778.2827148</ele>
        <time>2009-12-06T08:19:06Z</time>
      </trkpt>
      <trkpt lat="45.23979" lon="6.0109">
        <ele>1781.9556885</ele>
        <time>2009-12-06T08:19:22Z</time>
      </trkpt>
      <trkpt lat="45.23981" lon="6.0109">
        <ele>1781.8409424</ele>
        <time>2009-12-06T08:19:28Z</time>
      </trkpt>
      <trkpt lat="45.23978" lon="6.01098">
        <ele>1786.2227783</ele>
        <time>2009-12-06T08:19:54Z</time>
      </trkpt>
      <trkpt lat="45.2397" lon="6.01103">
        <ele>1789.6865234</ele>
        <time>2009-12-06T08:20:04Z</time>
      </trkpt>
      <trkpt lat="45.23965" lon="6.01105">
        <ele>1791.7696533</ele>
        <time>2009-12-06T08:20:10Z</time>
      </trkpt>
      <trkpt lat="45.23961" lon="6.0111">
        <ele>1795.237793</ele>
        <time>2009-12-06T08:20:15Z</time>
      </trkpt>
      <trkpt lat="45.23956" lon="6.01108">
        <ele>1795.2935791</ele>
        <time>2009-12-06T08:20:22Z</time>
      </trkpt>
      <trkpt lat="45.23965" lon="6.01111">
        <ele>1794.8831787</ele>
        <time>2009-12-06T08:20:48Z</time>
      </trkpt>
      <trkpt lat="45.2396" lon="6.01117">
        <ele>1800.496582</ele>
        <time>2009-12-06T08:21:07Z</time>
      </trkpt>
      <trkpt lat="45.23969" lon="6.01121">
        <ele>1800.7271729</ele>
        <time>2009-12-06T08:21:21Z</time>
      </trkpt>
      <trkpt lat="45.23994" lon="6.01123">
        <ele>1798.6075439</ele>
        <time>2009-12-06T08:21:53Z</time>
      </trkpt>
      <trkpt lat="45.23988" lon="6.01127">
        <ele>1802.0406494</ele>
        <time>2009-12-06T08:22:07Z</time>
      </trkpt>
      <trkpt lat="45.23981" lon="6.01132">
        <ele>1806.270874</ele>
        <time>2009-12-06T08:22:29Z</time>
      </trkpt>
      <trkpt lat="45.23989" lon="6.01139">
        <ele>1809.6970215</ele>
        <time>2009-12-06T08:22:51Z</time>
      </trkpt>
      <trkpt lat="45.23975" lon="6.01143">
        <ele>1813.9969482</ele>
        <time>2009-12-06T08:23:10Z</time>
      </trkpt>
      <trkpt lat="45.23964" lon="6.0115">
        <ele>1821.2104492</ele>
        <time>2009-12-06T08:23:28Z</time>
      </trkpt>
      <trkpt lat="45.2397" lon="6.01152">
        <ele>1820.2384033</ele>
        <time>2009-12-06T08:23:50Z</time>
      </trkpt>
      <trkpt lat="45.23967" lon="6.01161">
        <ele>1826.6932373</ele>
        <time>2009-12-06T08:24:05Z</time>
      </trkpt>
      <trkpt lat="45.23973" lon="6.0116">
        <ele>1824.0028076</ele>
        <time>2009-12-06T08:24:21Z</time>
      </trkpt>
      <trkpt lat="45.23975" lon="6.01169">
        <ele>1828.8259277</ele>
        <time>2009-12-06T08:24:55Z</time>
      </trkpt>
      <trkpt lat="45.23978" lon="6.01172">
        <ele>1829.7578125</ele>
        <time>2009-12-06T08:25:04Z</time>
      </trkpt>
      <trkpt lat="45.23989" lon="6.0118">
        <ele>1830.8549805</ele>
        <time>2009-12-06T08:25:21Z</time>
      </trkpt>
      <trkpt lat="45.23987" lon="6.01187">
        <ele>1834.3643799</ele>
        <time>2009-12-06T08:25:36Z</time>
      </trkpt>
      <trkpt lat="45.23989" lon="6.01188">
        <ele>1834.1002197</ele>
        <time>2009-12-06T08:25:39Z</time>
      </trkpt>
      <trkpt lat="45.24" lon="6.01197">
        <ele>1834.9194336</ele>
        <time>2009-12-06T08:26:22Z</time>
      </trkpt>
      <trkpt lat="45.24" lon="6.01211">
        <ele>1839.3139648</ele>
        <time>2009-12-06T08:26:50Z</time>
      </trkpt>
      <trkpt lat="45.23991" lon="6.01215">
        <ele>1843.5134277</ele>
        <time>2009-12-06T08:27:05Z</time>
      </trkpt>
      <trkpt lat="45.24004" lon="6.01236">
        <ele>1847.0737305</ele>
        <time>2009-12-06T08:27:34Z</time>
      </trkpt>
      <trkpt lat="45.24016" lon="6.01249">
        <ele>1850.5645752</ele>
        <time>2009-12-06T08:28:09Z</time>
      </trkpt>
      <trkpt lat="45.24008" lon="6.01259">
        <ele>1854.0423584</ele>
        <time>2009-12-06T08:28:26Z</time>
      </trkpt>
      <trkpt lat="45.24007" lon="6.01275">
        <ele>1858.7390137</ele>
        <time>2009-12-06T08:29:04Z</time>
      </trkpt>
      <trkpt lat="45.24017" lon="6.01278">
        <ele>1858.9771729</ele>
        <time>2009-12-06T08:29:22Z</time>
      </trkpt>
      <trkpt lat="45.24013" lon="6.01301">
        <ele>1865.2669678</ele>
        <time>2009-12-06T08:29:58Z</time>
      </trkpt>
      <trkpt lat="45.24025" lon="6.01306">
        <ele>1866.2336426</ele>
        <time>2009-12-06T08:30:34Z</time>
      </trkpt>
      <trkpt lat="45.24029" lon="6.01318">
        <ele>1869.7320557</ele>
        <time>2009-12-06T08:31:05Z</time>
      </trkpt>
      <trkpt lat="45.24018" lon="6.01332">
        <ele>1874.1254883</ele>
        <time>2009-12-06T08:31:23Z</time>
      </trkpt>
      <trkpt lat="45.24027" lon="6.0133">
        <ele>1872.9637451</ele>
        <time>2009-12-06T08:31:42Z</time>
      </trkpt>
      <trkpt lat="45.24028" lon="6.01343">
        <ele>1877.9472656</ele>
        <time>2009-12-06T08:32:20Z</time>
      </trkpt>
      <trkpt lat="45.2404" lon="6.01344">
        <ele>1879.3236084</ele>
        <time>2009-12-06T08:33:35Z</time>
      </trkpt>
      <trkpt lat="45.2403" lon="6.01356">
        <ele>1883.1474609</ele>
        <time>2009-12-06T08:36:48Z</time>
      </trkpt>
      <trkpt lat="45.24023" lon="6.01365">
        <ele>1887.5914307</ele>
        <time>2009-12-06T08:37:09Z</time>
      </trkpt>
      <trkpt lat="45.24004" lon="6.01373">
        <ele>1893.682251</ele>
        <time>2009-12-06T08:37:37Z</time>
      </trkpt>
      <trkpt lat="45.23973" lon="6.01366">
        <ele>1893.548584</ele>
        <time>2009-12-06T08:38:51Z</time>
      </trkpt>
      <trkpt lat="45.23955" lon="6.01385">
        <ele>1899.4128418</ele>
        <time>2009-12-06T08:39:41Z</time>
      </trkpt>
      <trkpt lat="45.23952" lon="6.01388">
        <ele>1900.0874023</ele>
        <time>2009-12-06T08:40:00Z</time>
      </trkpt>
      <trkpt lat="45.23952" lon="6.01415">
        <ele>1903.4764404</ele>
        <time>2009-12-06T08:40:50Z</time>
      </trkpt>
      <trkpt lat="45.23951" lon="6.01414">
        <ele>1903.2353516</ele>
        <time>2009-12-06T08:40:51Z</time>
      </trkpt>
      <trkpt lat="45.23938" lon="6.01431">
        <ele>1905.2441406</ele>
        <time>2009-12-06T08:41:23Z</time>
      </trkpt>
      <trkpt lat="45.23934" lon="6.01435">
        <ele>1906.1273193</ele>
        <time>2009-12-06T08:41:29Z</time>
      </trkpt>
      <trkpt lat="45.23911" lon="6.01433">
        <ele>1908.664917</ele>
        <time>2009-12-06T08:41:57Z</time>
      </trkpt>
      <trkpt lat="45.239" lon="6.01438">
        <ele>1908.1865234</ele>
        <time>2009-12-06T08:42:31Z</time>
      </trkpt>
      <trkpt lat="45.23872" lon="6.01437">
        <ele>1908.2797852</ele>
        <time>2009-12-06T08:43:02Z</time>
      </trkpt>
      <trkpt lat="45.23862" lon="6.01441">
        <ele>1908.7492676</ele>
        <time>2009-12-06T08:43:21Z</time>
      </trkpt>
      <trkpt lat="45.23857" lon="6.01453">
        <ele>1910.9849854</ele>
        <time>2009-12-06T08:43:35Z</time>
      </trkpt>
      <trkpt lat="45.23855" lon="6.01453">
        <ele>1911.189209</ele>
        <time>2009-12-06T08:43:54Z</time>
      </trkpt>
      <trkpt lat="45.23834" lon="6.01468">
        <ele>1916.1502686</ele>
        <time>2009-12-06T08:44:29Z</time>
      </trkpt>
      <trkpt lat="45.23825" lon="6.01475">
        <ele>1919.4525146</ele>
        <time>2009-12-06T08:44:48Z</time>
      </trkpt>
      <trkpt lat="45.23808" lon="6.01477">
        <ele>1923.9852295</ele>
        <time>2009-12-06T08:45:17Z</time>
      </trkpt>
      <trkpt lat="45.23794" lon="6.01476">
        <ele>1928.4838867</ele>
        <time>2009-12-06T08:45:58Z</time>
      </trkpt>
      <trkpt lat="45.23781" lon="6.01472">
        <ele>1931.7697754</ele>
        <time>2009-12-06T08:46:20Z</time>
      </trkpt>
      <trkpt lat="45.23772" lon="6.01473">
        <ele>1935.6636963</ele>
        <time>2009-12-06T08:46:39Z</time>
      </trkpt>
      <trkpt lat="45.23756" lon="6.0147">
        <ele>1941.7264404</ele>
        <time>2009-12-06T08:47:15Z</time>
      </trkpt>
      <trkpt lat="45.23737" lon="6.01456">
        <ele>1946.6213379</ele>
        <time>2009-12-06T08:48:00Z</time>
      </trkpt>
      <trkpt lat="45.23722" lon="6.0145">
        <ele>1952.0595703</ele>
        <time>2009-12-06T08:48:41Z</time>
      </trkpt>
      <trkpt lat="45.23713" lon="6.01445">
        <ele>1955.8360596</ele>
        <time>2009-12-06T08:49:36Z</time>
      </trkpt>
      <trkpt lat="45.23701" lon="6.0143">
        <ele>1959.1048584</ele>
        <time>2009-12-06T08:50:17Z</time>
      </trkpt>
      <trkpt lat="45.23701" lon="6.01429">
        <ele>1958.9475098</ele>
        <time>2009-12-06T08:50:18Z</time>
      </trkpt>
      <trkpt lat="45.23684" lon="6.01417">
        <ele>1962.8432617</ele>
        <time>2009-12-06T08:51:16Z</time>
      </trkpt>
      <trkpt lat="45.23665" lon="6.01415">
        <ele>1969.2365723</ele>
        <time>2009-12-06T08:52:17Z</time>
      </trkpt>
      <trkpt lat="45.23657" lon="6.01416">
        <ele>1972.6442871</ele>
        <time>2009-12-06T08:52:37Z</time>
      </trkpt>
      <trkpt lat="45.23645" lon="6.01412">
        <ele>1975.8566895</ele>
        <time>2009-12-06T08:53:18Z</time>
      </trkpt>
      <trkpt lat="45.23634" lon="6.01411">
        <ele>1980.1641846</ele>
        <time>2009-12-06T08:53:44Z</time>
      </trkpt>
      <trkpt lat="45.23626" lon="6.01413">
        <ele>1984.8461914</ele>
        <time>2009-12-06T08:54:10Z</time>
      </trkpt>
      <trkpt lat="45.23621" lon="6.01406">
        <ele>1984.2912598</ele>
        <time>2009-12-06T08:54:33Z</time>
      </trkpt>
      <trkpt lat="45.2361" lon="6.01408">
        <ele>1990.309082</ele>
        <time>2009-12-06T08:55:08Z</time>
      </trkpt>
      <trkpt lat="45.23609" lon="6.0141">
        <ele>1992.0588379</ele>
        <time>2009-12-06T08:55:20Z</time>
      </trkpt>
      <trkpt lat="45.23598" lon="6.01408">
        <ele>1997.0026855</ele>
        <time>2009-12-06T08:55:45Z</time>
      </trkpt>
      <trkpt lat="45.23597" lon="6.01407">
        <ele>1997.1203613</ele>
        <time>2009-12-06T08:55:49Z</time>
      </trkpt>
      <trkpt lat="45.2359" lon="6.01402">
        <ele>1999.4204102</ele>
        <time>2009-12-06T08:56:27Z</time>
      </trkpt>
      <trkpt lat="45.23597" lon="6.01403">
        <ele>1996.0637207</ele>
        <time>2009-12-06T08:56:46Z</time>
      </trkpt>
      <trkpt lat="45.23595" lon="6.01407">
        <ele>1998.6580811</ele>
        <time>2009-12-06T08:56:58Z</time>
      </trkpt>
      <trkpt lat="45.23605" lon="6.01426">
        <ele>2000.8248291</ele>
        <time>2009-12-06T08:58:01Z</time>
      </trkpt>
      <trkpt lat="45.23605" lon="6.01435">
        <ele>2004.7008057</ele>
        <time>2009-12-06T08:58:16Z</time>
      </trkpt>
      <trkpt lat="45.23586" lon="6.01438">
        <ele>2012.9578857</ele>
        <time>2009-12-06T08:58:53Z</time>
      </trkpt>
      <trkpt lat="45.23581" lon="6.01436">
        <ele>2014.7822266</ele>
        <time>2009-12-06T08:59:55Z</time>
      </trkpt>
      <trkpt lat="45.23581" lon="6.01457">
        <ele>2020.5288086</ele>
        <time>2009-12-06T09:00:32Z</time>
      </trkpt>
      <trkpt lat="45.23571" lon="6.01458">
        <ele>2024.5604248</ele>
        <time>2009-12-06T09:00:55Z</time>
      </trkpt>
      <trkpt lat="45.23568" lon="6.01454">
        <ele>2025.446167</ele>
        <time>2009-12-06T09:01:03Z</time>
      </trkpt>
      <trkpt lat="45.23566" lon="6.01464">
        <ele>2027.7855225</ele>
        <time>2009-12-06T09:02:00Z</time>
      </trkpt>
      <trkpt lat="45.23566" lon="6.01474">
        <ele>2029.9755859</ele>
        <time>2009-12-06T09:02:29Z</time>
      </trkpt>
      <trkpt lat="45.23551" lon="6.01466">
        <ele>2035.4761963</ele>
        <time>2009-12-06T09:03:14Z</time>
      </trkpt>
      <trkpt lat="45.23545" lon="6.01461">
        <ele>2039.2716064</ele>
        <time>2009-12-06T09:03:35Z</time>
      </trkpt>
      <trkpt lat="45.23537" lon="6.01455">
        <ele>2045.0498047</ele>
        <time>2009-12-06T09:04:05Z</time>
      </trkpt>
      <trkpt lat="45.23539" lon="6.01465">
        <ele>2045.1217041</ele>
        <time>2009-12-06T09:04:17Z</time>
      </trkpt>
      <trkpt lat="45.23534" lon="6.01483">
        <ele>2050.3010254</ele>
        <time>2009-12-06T09:06:25Z</time>
      </trkpt>
      <trkpt lat="45.23525" lon="6.01503">
        <ele>2058.8544922</ele>
        <time>2009-12-06T09:07:17Z</time>
      </trkpt>
      <trkpt lat="45.23515" lon="6.01499">
        <ele>2063.9282227</ele>
        <time>2009-12-06T09:07:34Z</time>
      </trkpt>
      <trkpt lat="45.23507" lon="6.01494">
        <ele>2068.7927246</ele>
        <time>2009-12-06T09:08:00Z</time>
      </trkpt>
      <trkpt lat="45.23505" lon="6.01521">
        <ele>2070.7512207</ele>
        <time>2009-12-06T09:09:21Z</time>
      </trkpt>
      <trkpt lat="45.23497" lon="6.01537">
        <ele>2076.9812012</ele>
        <time>2009-12-06T09:10:43Z</time>
      </trkpt>
      <trkpt lat="45.23496" lon="6.01546">
        <ele>2080.0939941</ele>
        <time>2009-12-06T09:10:58Z</time>
      </trkpt>
      <trkpt lat="45.235" lon="6.01548">
        <ele>2078.8168945</ele>
        <time>2009-12-06T09:11:12Z</time>
      </trkpt>
      <trkpt lat="45.23494" lon="6.01555">
        <ele>2083.3190918</ele>
        <time>2009-12-06T09:11:35Z</time>
      </trkpt>
      <trkpt lat="45.23487" lon="6.01565">
        <ele>2088.3747559</ele>
        <time>2009-12-06T09:11:57Z</time>
      </trkpt>
      <trkpt lat="45.23484" lon="6.01566">
        <ele>2089.6437988</ele>
        <time>2009-12-06T09:12:04Z</time>
      </trkpt>
      <trkpt lat="45.23491" lon="6.01573">
        <ele>2088.7092285</ele>
        <time>2009-12-06T09:13:08Z</time>
      </trkpt>
      <trkpt lat="45.23481" lon="6.01573">
        <ele>2092.7001953</ele>
        <time>2009-12-06T09:13:28Z</time>
      </trkpt>
      <trkpt lat="45.23496" lon="6.01589">
        <ele>2090.8544922</ele>
        <time>2009-12-06T09:14:37Z</time>
      </trkpt>
      <trkpt lat="45.23481" lon="6.01595">
        <ele>2097.765625</ele>
        <time>2009-12-06T09:14:56Z</time>
      </trkpt>
      <trkpt lat="45.23475" lon="6.01604">
        <ele>2102.1257324</ele>
        <time>2009-12-06T09:15:09Z</time>
      </trkpt>
      <trkpt lat="45.23475" lon="6.01603">
        <ele>2102.190918</ele>
        <time>2009-12-06T09:15:10Z</time>
      </trkpt>
      <trkpt lat="45.23462" lon="6.01604">
        <ele>2107.6213379</ele>
        <time>2009-12-06T09:16:11Z</time>
      </trkpt>
      <trkpt lat="45.23449" lon="6.01615">
        <ele>2116.4233398</ele>
        <time>2009-12-06T09:16:38Z</time>
      </trkpt>
      <trkpt lat="45.23456" lon="6.01609">
        <ele>2111.6157227</ele>
        <time>2009-12-06T09:18:58Z</time>
      </trkpt>
      <trkpt lat="45.2346" lon="6.01593">
        <ele>2105.8103027</ele>
        <time>2009-12-06T09:21:30Z</time>
      </trkpt>
      <trkpt lat="45.23447" lon="6.01588">
        <ele>2110.2355957</ele>
        <time>2009-12-06T09:22:15Z</time>
      </trkpt>
      <trkpt lat="45.23437" lon="6.01588">
        <ele>2115.7910156</ele>
        <time>2009-12-06T09:22:26Z</time>
      </trkpt>
      <trkpt lat="45.23437" lon="6.01588">
        <ele>2115.769043</ele>
        <time>2009-12-06T09:22:27Z</time>
      </trkpt>
      <trkpt lat="45.23432" lon="6.0159">
        <ele>2119.0205078</ele>
        <time>2009-12-06T09:22:36Z</time>
      </trkpt>
      <trkpt lat="45.23427" lon="6.0159">
        <ele>2122.0371094</ele>
        <time>2009-12-06T09:22:46Z</time>
      </trkpt>
      <trkpt lat="45.23426" lon="6.01589">
        <ele>2122.1472168</ele>
        <time>2009-12-06T09:22:48Z</time>
      </trkpt>
      <trkpt lat="45.23416" lon="6.01582">
        <ele>2127.0307617</ele>
        <time>2009-12-06T09:23:05Z</time>
      </trkpt>
      <trkpt lat="45.23408" lon="6.01576">
        <ele>2130.8261719</ele>
        <time>2009-12-06T09:23:21Z</time>
      </trkpt>
      <trkpt lat="45.23399" lon="6.01567">
        <ele>2134.2319336</ele>
        <time>2009-12-06T09:23:42Z</time>
      </trkpt>
      <trkpt lat="45.23406" lon="6.01586">
        <ele>2133.7272949</ele>
        <time>2009-12-06T09:24:04Z</time>
      </trkpt>
      <trkpt lat="45.23409" lon="6.01647">
        <ele>2144.0400391</ele>
        <time>2009-12-06T09:25:27Z</time>
      </trkpt>
      <trkpt lat="45.23397" lon="6.01658">
        <ele>2153.2561035</ele>
        <time>2009-12-06T09:25:55Z</time>
      </trkpt>
      <trkpt lat="45.23373" lon="6.01624">
        <ele>2163.2885742</ele>
        <time>2009-12-06T09:27:00Z</time>
      </trkpt>
      <trkpt lat="45.23381" lon="6.01632">
        <ele>2159.1486816</ele>
        <time>2009-12-06T09:27:27Z</time>
      </trkpt>
      <trkpt lat="45.2338" lon="6.01673">
        <ele>2166.8439941</ele>
        <time>2009-12-06T09:28:19Z</time>
      </trkpt>
      <trkpt lat="45.23384" lon="6.01682">
        <ele>2167.0439453</ele>
        <time>2009-12-06T09:28:46Z</time>
      </trkpt>
      <trkpt lat="45.23371" lon="6.01675">
        <ele>2172.2854004</ele>
        <time>2009-12-06T09:29:11Z</time>
      </trkpt>
      <trkpt lat="45.23361" lon="6.01666">
        <ele>2177.1569824</ele>
        <time>2009-12-06T09:29:32Z</time>
      </trkpt>
      <trkpt lat="45.23356" lon="6.01659">
        <ele>2180.1853027</ele>
        <time>2009-12-06T09:29:50Z</time>
      </trkpt>
      <trkpt lat="45.2335" lon="6.01649">
        <ele>2183.9509277</ele>
        <time>2009-12-06T09:30:14Z</time>
      </trkpt>
      <trkpt lat="45.23344" lon="6.01641">
        <ele>2188.0654297</ele>
        <time>2009-12-06T09:30:31Z</time>
      </trkpt>
      <trkpt lat="45.23338" lon="6.01634">
        <ele>2192.2370605</ele>
        <time>2009-12-06T09:30:45Z</time>
      </trkpt>
      <trkpt lat="45.23336" lon="6.01649">
        <ele>2195.6328125</ele>
        <time>2009-12-06T09:31:25Z</time>
      </trkpt>
      <trkpt lat="45.23338" lon="6.01662">
        <ele>2195.8337402</ele>
        <time>2009-12-06T09:31:43Z</time>
      </trkpt>
      <trkpt lat="45.23334" lon="6.01673">
        <ele>2202.0444336</ele>
        <time>2009-12-06T09:32:00Z</time>
      </trkpt>
      <trkpt lat="45.2333" lon="6.01678">
        <ele>2208.6750488</ele>
        <time>2009-12-06T09:32:17Z</time>
      </trkpt>
      <trkpt lat="45.2333" lon="6.01675">
        <ele>2207.918457</ele>
        <time>2009-12-06T09:32:33Z</time>
      </trkpt>
      <trkpt lat="45.23323" lon="6.01663">
        <ele>2211.8076172</ele>
        <time>2009-12-06T09:33:00Z</time>
      </trkpt>
      <trkpt lat="45.23323" lon="6.01658">
        <ele>2211.7592773</ele>
        <time>2009-12-06T09:33:16Z</time>
      </trkpt>
      <trkpt lat="45.23312" lon="6.01635">
        <ele>2220.140625</ele>
        <time>2009-12-06T09:34:17Z</time>
      </trkpt>
      <trkpt lat="45.23308" lon="6.01636">
        <ele>2225.4140625</ele>
        <time>2009-12-06T09:35:02Z</time>
      </trkpt>
      <trkpt lat="45.23304" lon="6.01648">
        <ele>2232.5810547</ele>
        <time>2009-12-06T09:35:19Z</time>
      </trkpt>
      <trkpt lat="45.23302" lon="6.01664">
        <ele>2237.8752441</ele>
        <time>2009-12-06T09:36:06Z</time>
      </trkpt>
      <trkpt lat="45.23302" lon="6.01678">
        <ele>2243.0100098</ele>
        <time>2009-12-06T09:36:36Z</time>
      </trkpt>
      <trkpt lat="45.23299" lon="6.01684">
        <ele>2249.1088867</ele>
        <time>2009-12-06T09:36:52Z</time>
      </trkpt>
      <trkpt lat="45.23301" lon="6.01676">
        <ele>2243.6445313</ele>
        <time>2009-12-06T09:37:25Z</time>
      </trkpt>
      <trkpt lat="45.23291" lon="6.01666">
        <ele>2251.1125488</ele>
        <time>2009-12-06T09:39:41Z</time>
      </trkpt>
      <trkpt lat="45.2329" lon="6.01672">
        <ele>2254.564209</ele>
        <time>2009-12-06T09:40:10Z</time>
      </trkpt>
      <trkpt lat="45.23288" lon="6.01684">
        <ele>2260.6210938</ele>
        <time>2009-12-06T09:41:06Z</time>
      </trkpt>
      <trkpt lat="45.23289" lon="6.01674">
        <ele>2255.527832</ele>
        <time>2009-12-06T09:41:24Z</time>
      </trkpt>
      <trkpt lat="45.23281" lon="6.01645">
        <ele>2259.6352539</ele>
        <time>2009-12-06T09:42:36Z</time>
      </trkpt>
      <trkpt lat="45.23281" lon="6.01639">
        <ele>2259.3156738</ele>
        <time>2009-12-06T09:45:10Z</time>
      </trkpt>
      <trkpt lat="45.2328" lon="6.01635">
        <ele>2260.015625</ele>
        <time>2009-12-06T09:45:24Z</time>
      </trkpt>
      <trkpt lat="45.23278" lon="6.01635">
        <ele>2261.927002</ele>
        <time>2009-12-06T09:46:58Z</time>
      </trkpt>
      <trkpt lat="45.23273" lon="6.0163">
        <ele>2267.8735352</ele>
        <time>2009-12-06T09:50:33Z</time>
      </trkpt>
      <trkpt lat="45.23272" lon="6.01622">
        <ele>2267.6328125</ele>
        <time>2009-12-06T09:52:46Z</time>
      </trkpt>
      <trkpt lat="45.23268" lon="6.01619">
        <ele>2271.8269043</ele>
        <time>2009-12-06T09:53:18Z</time>
      </trkpt>
      <trkpt lat="45.23261" lon="6.01611">
        <ele>2278.6018066</ele>
        <time>2009-12-06T09:54:37Z</time>
      </trkpt>
      <trkpt lat="45.23254" lon="6.01603">
        <ele>2284.3012695</ele>
        <time>2009-12-06T09:55:01Z</time>
      </trkpt>
      <trkpt lat="45.2325" lon="6.01605">
        <ele>2289.1748047</ele>
        <time>2009-12-06T09:55:27Z</time>
      </trkpt>
      <trkpt lat="45.2325" lon="6.01604">
        <ele>2288.973877</ele>
        <time>2009-12-06T09:55:38Z</time>
      </trkpt>
      <trkpt lat="45.23237" lon="6.01596">
        <ele>2291.4924316</ele>
        <time>2009-12-06T09:57:26Z</time>
      </trkpt>
      <trkpt lat="45.23228" lon="6.01583">
        <ele>2289.8164063</ele>
        <time>2009-12-06T09:59:23Z</time>
      </trkpt>
      <trkpt lat="45.23218" lon="6.01578">
        <ele>2287.7636719</ele>
        <time>2009-12-06T10:01:00Z</time>
      </trkpt>
      <trkpt lat="45.23215" lon="6.0159">
        <ele>2291.1584473</ele>
        <time>2009-12-06T10:02:39Z</time>
      </trkpt>
      <trkpt lat="45.23211" lon="6.01594">
        <ele>2291.8254395</ele>
        <time>2009-12-06T10:03:59Z</time>
      </trkpt>
      <trkpt lat="45.2321" lon="6.01594">
        <ele>2291.6630859</ele>
        <time>2009-12-06T10:04:53Z</time>
      </trkpt>
      <trkpt lat="45.2321" lon="6.01588">
        <ele>2289.244873</ele>
        <time>2009-12-06T10:06:52Z</time>
      </trkpt>
      <trkpt lat="45.23199" lon="6.01597">
        <ele>2290.3518066</ele>
        <time>2009-12-06T10:07:41Z</time>
      </trkpt>
      <trkpt lat="45.2318" lon="6.01617">
        <ele>2292.6013184</ele>
        <time>2009-12-06T10:08:16Z</time>
      </trkpt>
      <trkpt lat="45.2317" lon="6.01635">
        <ele>2298.6901855</ele>
        <time>2009-12-06T10:08:49Z</time>
      </trkpt>
      <trkpt lat="45.23168" lon="6.01652">
        <ele>2300.3823242</ele>
        <time>2009-12-06T10:09:11Z</time>
      </trkpt>
      <trkpt lat="45.23169" lon="6.01681">
        <ele>2303.3974609</ele>
        <time>2009-12-06T10:09:44Z</time>
      </trkpt>
      <trkpt lat="45.23169" lon="6.01681">
        <ele>2303.4782715</ele>
        <time>2009-12-06T10:09:45Z</time>
      </trkpt>
      <trkpt lat="45.23171" lon="6.01706">
        <ele>2306.5600586</ele>
        <time>2009-12-06T10:10:14Z</time>
      </trkpt>
      <trkpt lat="45.23186" lon="6.01717">
        <ele>2314.6367188</ele>
        <time>2009-12-06T10:11:14Z</time>
      </trkpt>
      <trkpt lat="45.23186" lon="6.01716">
        <ele>2314.6606445</ele>
        <time>2009-12-06T10:11:16Z</time>
      </trkpt>
      <trkpt lat="45.23192" lon="6.01719">
        <ele>2317.6860352</ele>
        <time>2009-12-06T10:11:27Z</time>
      </trkpt>
      <trkpt lat="45.23201" lon="6.01733">
        <ele>2316.6865234</ele>
        <time>2009-12-06T10:11:50Z</time>
      </trkpt>
      <trkpt lat="45.23217" lon="6.01733">
        <ele>2319.8886719</ele>
        <time>2009-12-06T10:12:08Z</time>
      </trkpt>
      <trkpt lat="45.23233" lon="6.01748">
        <ele>2318.9521484</ele>
        <time>2009-12-06T10:12:54Z</time>
      </trkpt>
      <trkpt lat="45.23232" lon="6.01748">
        <ele>2318.9606934</ele>
        <time>2009-12-06T10:13:23Z</time>
      </trkpt>
      <trkpt lat="45.2323" lon="6.01746">
        <ele>2319.0419922</ele>
        <time>2009-12-06T10:15:17Z</time>
      </trkpt>
      <trkpt lat="45.23232" lon="6.01756">
        <ele>2317.3225098</ele>
        <time>2009-12-06T10:17:41Z</time>
      </trkpt>
      <trkpt lat="45.23229" lon="6.01761">
        <ele>2315.5517578</ele>
        <time>2009-12-06T10:17:58Z</time>
      </trkpt>
      <trkpt lat="45.2323" lon="6.0176">
        <ele>2315.7722168</ele>
        <time>2009-12-06T10:20:32Z</time>
      </trkpt>
      <trkpt lat="45.2322" lon="6.01756">
        <ele>2315.1560059</ele>
        <time>2009-12-06T10:22:30Z</time>
      </trkpt>
      <trkpt lat="45.2322" lon="6.01757">
        <ele>2314.984375</ele>
        <time>2009-12-06T10:23:07Z</time>
      </trkpt>
      <trkpt lat="45.23216" lon="6.0175">
        <ele>2316.2421875</ele>
        <time>2009-12-06T10:25:37Z</time>
      </trkpt>
      <trkpt lat="45.23213" lon="6.01744">
        <ele>2316.6884766</ele>
        <time>2009-12-06T10:26:16Z</time>
      </trkpt>
      <trkpt lat="45.23199" lon="6.01729">
        <ele>2317.7026367</ele>
        <time>2009-12-06T10:26:41Z</time>
      </trkpt>
      <trkpt lat="45.23199" lon="6.01728">
        <ele>2317.9316406</ele>
        <time>2009-12-06T10:27:13Z</time>
      </trkpt>
      <trkpt lat="45.23199" lon="6.01685">
        <ele>2318.5690918</ele>
        <time>2009-12-06T10:27:31Z</time>
      </trkpt>
      <trkpt lat="45.23198" lon="6.01684">
        <ele>2317.894043</ele>
        <time>2009-12-06T10:27:36Z</time>
      </trkpt>
      <trkpt lat="45.23189" lon="6.01678">
        <ele>2313.0087891</ele>
        <time>2009-12-06T10:27:49Z</time>
      </trkpt>
      <trkpt lat="45.2319" lon="6.01676">
        <ele>2313.1040039</ele>
        <time>2009-12-06T10:27:52Z</time>
      </trkpt>
      <trkpt lat="45.23193" lon="6.01662">
        <ele>2311.0898438</ele>
        <time>2009-12-06T10:28:00Z</time>
      </trkpt>
      <trkpt lat="45.2319" lon="6.01653">
        <ele>2307.8908691</ele>
        <time>2009-12-06T10:28:04Z</time>
      </trkpt>
      <trkpt lat="45.23188" lon="6.01634">
        <ele>2302.7722168</ele>
        <time>2009-12-06T10:28:11Z</time>
      </trkpt>
      <trkpt lat="45.2321" lon="6.01603">
        <ele>2295.387207</ele>
        <time>2009-12-06T10:28:29Z</time>
      </trkpt>
      <trkpt lat="45.23211" lon="6.0159">
        <ele>2290.0905762</ele>
        <time>2009-12-06T10:28:33Z</time>
      </trkpt>
      <trkpt lat="45.23217" lon="6.01579">
        <ele>2287.9521484</ele>
        <time>2009-12-06T10:28:53Z</time>
      </trkpt>
      <trkpt lat="45.23224" lon="6.01583">
        <ele>2290.6542969</ele>
        <time>2009-12-06T10:29:33Z</time>
      </trkpt>
      <trkpt lat="45.23227" lon="6.01584">
        <ele>2290.4064941</ele>
        <time>2009-12-06T10:30:03Z</time>
      </trkpt>
      <trkpt lat="45.23247" lon="6.01608">
        <ele>2290.7692871</ele>
        <time>2009-12-06T10:30:37Z</time>
      </trkpt>
      <trkpt lat="45.23254" lon="6.0162">
        <ele>2287.0178223</ele>
        <time>2009-12-06T10:31:08Z</time>
      </trkpt>
      <trkpt lat="45.23254" lon="6.01618">
        <ele>2287.0786133</ele>
        <time>2009-12-06T10:31:11Z</time>
      </trkpt>
      <trkpt lat="45.23269" lon="6.016">
        <ele>2268.5893555</ele>
        <time>2009-12-06T10:31:45Z</time>
      </trkpt>
      <trkpt lat="45.23274" lon="6.01602">
        <ele>2263.6911621</ele>
        <time>2009-12-06T10:32:05Z</time>
      </trkpt>
      <trkpt lat="45.23278" lon="6.01605">
        <ele>2259.9892578</ele>
        <time>2009-12-06T10:32:10Z</time>
      </trkpt>
      <trkpt lat="45.23284" lon="6.01615">
        <ele>2254.0820313</ele>
        <time>2009-12-06T10:32:23Z</time>
      </trkpt>
      <trkpt lat="45.23288" lon="6.01619">
        <ele>2249.7397461</ele>
        <time>2009-12-06T10:32:27Z</time>
      </trkpt>
      <trkpt lat="45.23296" lon="6.01635">
        <ele>2240.4528809</ele>
        <time>2009-12-06T10:32:43Z</time>
      </trkpt>
      <trkpt lat="45.23298" lon="6.01638">
        <ele>2237.645752</ele>
        <time>2009-12-06T10:32:46Z</time>
      </trkpt>
      <trkpt lat="45.23301" lon="6.01636">
        <ele>2234.2607422</ele>
        <time>2009-12-06T10:32:48Z</time>
      </trkpt>
      <trkpt lat="45.23306" lon="6.01636">
        <ele>2228.0551758</ele>
        <time>2009-12-06T10:32:50Z</time>
      </trkpt>
      <trkpt lat="45.23308" lon="6.01651">
        <ele>2228.3837891</ele>
        <time>2009-12-06T10:33:14Z</time>
      </trkpt>
      <trkpt lat="45.23317" lon="6.01646">
        <ele>2216.3625488</ele>
        <time>2009-12-06T10:33:18Z</time>
      </trkpt>
      <trkpt lat="45.23324" lon="6.01649">
        <ele>2208.7434082</ele>
        <time>2009-12-06T10:33:20Z</time>
      </trkpt>
      <trkpt lat="45.23333" lon="6.01649">
        <ele>2197.8520508</ele>
        <time>2009-12-06T10:33:23Z</time>
      </trkpt>
      <trkpt lat="45.23337" lon="6.01647">
        <ele>2194.3850098</ele>
        <time>2009-12-06T10:33:25Z</time>
      </trkpt>
      <trkpt lat="45.23341" lon="6.01646">
        <ele>2190.5717773</ele>
        <time>2009-12-06T10:33:28Z</time>
      </trkpt>
      <trkpt lat="45.23339" lon="6.0164">
        <ele>2191.8415527</ele>
        <time>2009-12-06T10:33:54Z</time>
      </trkpt>
      <trkpt lat="45.23342" lon="6.01632">
        <ele>2188.7331543</ele>
        <time>2009-12-06T10:34:06Z</time>
      </trkpt>
      <trkpt lat="45.23346" lon="6.01631">
        <ele>2185.513916</ele>
        <time>2009-12-06T10:34:08Z</time>
      </trkpt>
      <trkpt lat="45.23351" lon="6.01615">
        <ele>2179.5654297</ele>
        <time>2009-12-06T10:34:11Z</time>
      </trkpt>
      <trkpt lat="45.23357" lon="6.01608">
        <ele>2173.4606934</ele>
        <time>2009-12-06T10:34:14Z</time>
      </trkpt>
      <trkpt lat="45.2336" lon="6.01598">
        <ele>2169.5100098</ele>
        <time>2009-12-06T10:34:18Z</time>
      </trkpt>
      <trkpt lat="45.23375" lon="6.0158">
        <ele>2154.0493164</ele>
        <time>2009-12-06T10:34:25Z</time>
      </trkpt>
      <trkpt lat="45.23371" lon="6.0157">
        <ele>2155.6364746</ele>
        <time>2009-12-06T10:34:27Z</time>
      </trkpt>
      <trkpt lat="45.23375" lon="6.01565">
        <ele>2151.5324707</ele>
        <time>2009-12-06T10:34:29Z</time>
      </trkpt>
      <trkpt lat="45.23379" lon="6.01563">
        <ele>2147.7011719</ele>
        <time>2009-12-06T10:34:31Z</time>
      </trkpt>
      <trkpt lat="45.23387" lon="6.0156">
        <ele>2140.3164063</ele>
        <time>2009-12-06T10:34:33Z</time>
      </trkpt>
      <trkpt lat="45.23391" lon="6.01557">
        <ele>2137.1467285</ele>
        <time>2009-12-06T10:34:35Z</time>
      </trkpt>
      <trkpt lat="45.234" lon="6.0155">
        <ele>2130.8027344</ele>
        <time>2009-12-06T10:34:37Z</time>
      </trkpt>
      <trkpt lat="45.23401" lon="6.01556">
        <ele>2130.9138184</ele>
        <time>2009-12-06T10:34:38Z</time>
      </trkpt>
      <trkpt lat="45.23409" lon="6.01551">
        <ele>2125.831543</ele>
        <time>2009-12-06T10:34:40Z</time>
      </trkpt>
      <trkpt lat="45.23417" lon="6.01546">
        <ele>2120.7160645</ele>
        <time>2009-12-06T10:34:43Z</time>
      </trkpt>
      <trkpt lat="45.23421" lon="6.01541">
        <ele>2116.746582</ele>
        <time>2009-12-06T10:34:44Z</time>
      </trkpt>
      <trkpt lat="45.23409" lon="6.01514">
        <ele>2121.6733398</ele>
        <time>2009-12-06T10:35:25Z</time>
      </trkpt>
      <trkpt lat="45.23415" lon="6.01508">
        <ele>2117.354248</ele>
        <time>2009-12-06T10:35:37Z</time>
      </trkpt>
      <trkpt lat="45.23431" lon="6.0152">
        <ele>2107.4997559</ele>
        <time>2009-12-06T10:35:40Z</time>
      </trkpt>
      <trkpt lat="45.23438" lon="6.01521">
        <ele>2102.6999512</ele>
        <time>2009-12-06T10:35:42Z</time>
      </trkpt>
      <trkpt lat="45.23445" lon="6.01525">
        <ele>2097.5917969</ele>
        <time>2009-12-06T10:35:44Z</time>
      </trkpt>
      <trkpt lat="45.23452" lon="6.01516">
        <ele>2094.3479004</ele>
        <time>2009-12-06T10:35:47Z</time>
      </trkpt>
      <trkpt lat="45.23455" lon="6.01506">
        <ele>2092.3525391</ele>
        <time>2009-12-06T10:36:06Z</time>
      </trkpt>
      <trkpt lat="45.2346" lon="6.01487">
        <ele>2091.5776367</ele>
        <time>2009-12-06T10:36:26Z</time>
      </trkpt>
      <trkpt lat="45.23463" lon="6.01462">
        <ele>2093.6367188</ele>
        <time>2009-12-06T10:36:31Z</time>
      </trkpt>
      <trkpt lat="45.23475" lon="6.0143">
        <ele>2095.1362305</ele>
        <time>2009-12-06T10:36:37Z</time>
      </trkpt>
      <trkpt lat="45.23485" lon="6.01415">
        <ele>2090.0031738</ele>
        <time>2009-12-06T10:36:41Z</time>
      </trkpt>
      <trkpt lat="45.23494" lon="6.01413">
        <ele>2083.2666016</ele>
        <time>2009-12-06T10:36:44Z</time>
      </trkpt>
      <trkpt lat="45.23494" lon="6.01411">
        <ele>2082.9067383</ele>
        <time>2009-12-06T10:36:46Z</time>
      </trkpt>
      <trkpt lat="45.23497" lon="6.01408">
        <ele>2079.486084</ele>
        <time>2009-12-06T10:36:48Z</time>
      </trkpt>
      <trkpt lat="45.23508" lon="6.01403">
        <ele>2067.4782715</ele>
        <time>2009-12-06T10:36:54Z</time>
      </trkpt>
      <trkpt lat="45.23523" lon="6.01401">
        <ele>2052.5522461</ele>
        <time>2009-12-06T10:37:07Z</time>
      </trkpt>
      <trkpt lat="45.23529" lon="6.01399">
        <ele>2045.513916</ele>
        <time>2009-12-06T10:37:28Z</time>
      </trkpt>
      <trkpt lat="45.23541" lon="6.01421">
        <ele>2038.1534424</ele>
        <time>2009-12-06T10:37:35Z</time>
      </trkpt>
      <trkpt lat="45.23536" lon="6.01444">
        <ele>2044.8736572</ele>
        <time>2009-12-06T10:38:09Z</time>
      </trkpt>
      <trkpt lat="45.23544" lon="6.01438">
        <ele>2037.9748535</ele>
        <time>2009-12-06T10:38:12Z</time>
      </trkpt>
      <trkpt lat="45.23545" lon="6.01439">
        <ele>2036.7805176</ele>
        <time>2009-12-06T10:38:14Z</time>
      </trkpt>
      <trkpt lat="45.2355" lon="6.01442">
        <ele>2033.5330811</ele>
        <time>2009-12-06T10:38:18Z</time>
      </trkpt>
      <trkpt lat="45.23557" lon="6.01443">
        <ele>2028.1571045</ele>
        <time>2009-12-06T10:38:20Z</time>
      </trkpt>
      <trkpt lat="45.23563" lon="6.01439">
        <ele>2024.4938965</ele>
        <time>2009-12-06T10:38:27Z</time>
      </trkpt>
      <trkpt lat="45.2356" lon="6.01431">
        <ele>2024.4422607</ele>
        <time>2009-12-06T10:38:45Z</time>
      </trkpt>
      <trkpt lat="45.23567" lon="6.01422">
        <ele>2018.6048584</ele>
        <time>2009-12-06T10:38:54Z</time>
      </trkpt>
      <trkpt lat="45.23568" lon="6.01421">
        <ele>2018.0825195</ele>
        <time>2009-12-06T10:39:32Z</time>
      </trkpt>
      <trkpt lat="45.23573" lon="6.01408">
        <ele>2011.5203857</ele>
        <time>2009-12-06T10:42:02Z</time>
      </trkpt>
      <trkpt lat="45.23571" lon="6.01401">
        <ele>2011.4030762</ele>
        <time>2009-12-06T10:42:04Z</time>
      </trkpt>
      <trkpt lat="45.23568" lon="6.01378">
        <ele>2004.9581299</ele>
        <time>2009-12-06T10:42:11Z</time>
      </trkpt>
      <trkpt lat="45.23584" lon="6.0137">
        <ele>1990.4095459</ele>
        <time>2009-12-06T10:42:14Z</time>
      </trkpt>
      <trkpt lat="45.23601" lon="6.01366">
        <ele>1977.5606689</ele>
        <time>2009-12-06T10:42:16Z</time>
      </trkpt>
      <trkpt lat="45.23608" lon="6.01364">
        <ele>1971.8151855</ele>
        <time>2009-12-06T10:42:18Z</time>
      </trkpt>
      <trkpt lat="45.23612" lon="6.01363">
        <ele>1968.6695557</ele>
        <time>2009-12-06T10:42:19Z</time>
      </trkpt>
      <trkpt lat="45.23622" lon="6.01363">
        <ele>1965.1925049</ele>
        <time>2009-12-06T10:42:21Z</time>
      </trkpt>
      <trkpt lat="45.23634" lon="6.01362">
        <ele>1961.0758057</ele>
        <time>2009-12-06T10:42:23Z</time>
      </trkpt>
      <trkpt lat="45.23658" lon="6.01365">
        <ele>1957.234375</ele>
        <time>2009-12-06T10:42:28Z</time>
      </trkpt>
      <trkpt lat="45.23684" lon="6.0137">
        <ele>1951.109375</ele>
        <time>2009-12-06T10:42:37Z</time>
      </trkpt>
      <trkpt lat="45.23699" lon="6.01374">
        <ele>1947.1419678</ele>
        <time>2009-12-06T10:42:40Z</time>
      </trkpt>
      <trkpt lat="45.237" lon="6.01364">
        <ele>1944.828125</ele>
        <time>2009-12-06T10:42:45Z</time>
      </trkpt>
      <trkpt lat="45.23698" lon="6.01367">
        <ele>1945.9984131</ele>
        <time>2009-12-06T10:42:58Z</time>
      </trkpt>
      <trkpt lat="45.23706" lon="6.01366">
        <ele>1942.7098389</ele>
        <time>2009-12-06T10:43:01Z</time>
      </trkpt>
      <trkpt lat="45.23716" lon="6.01354">
        <ele>1938.7202148</ele>
        <time>2009-12-06T10:43:10Z</time>
      </trkpt>
      <trkpt lat="45.23716" lon="6.01358">
        <ele>1938.565918</ele>
        <time>2009-12-06T10:43:16Z</time>
      </trkpt>
      <trkpt lat="45.23716" lon="6.01357">
        <ele>1938.4827881</ele>
        <time>2009-12-06T10:43:23Z</time>
      </trkpt>
      <trkpt lat="45.23736" lon="6.01337">
        <ele>1933.388916</ele>
        <time>2009-12-06T10:43:28Z</time>
      </trkpt>
      <trkpt lat="45.2374" lon="6.01324">
        <ele>1932.7017822</ele>
        <time>2009-12-06T10:43:31Z</time>
      </trkpt>
      <trkpt lat="45.23743" lon="6.0132">
        <ele>1931.5167236</ele>
        <time>2009-12-06T10:43:41Z</time>
      </trkpt>
      <trkpt lat="45.23744" lon="6.01319">
        <ele>1930.9273682</ele>
        <time>2009-12-06T10:44:26Z</time>
      </trkpt>
      <trkpt lat="45.23742" lon="6.01314">
        <ele>1932.1346436</ele>
        <time>2009-12-06T10:44:50Z</time>
      </trkpt>
      <trkpt lat="45.23734" lon="6.01312">
        <ele>1935.4368896</ele>
        <time>2009-12-06T10:45:11Z</time>
      </trkpt>
      <trkpt lat="45.23741" lon="6.01298">
        <ele>1930.6988525</ele>
        <time>2009-12-06T10:45:35Z</time>
      </trkpt>
      <trkpt lat="45.23738" lon="6.01287">
        <ele>1929.5349121</ele>
        <time>2009-12-06T10:45:40Z</time>
      </trkpt>
      <trkpt lat="45.23744" lon="6.01284">
        <ele>1926.569458</ele>
        <time>2009-12-06T10:45:54Z</time>
      </trkpt>
      <trkpt lat="45.23748" lon="6.01276">
        <ele>1922.784668</ele>
        <time>2009-12-06T10:45:58Z</time>
      </trkpt>
      <trkpt lat="45.23744" lon="6.01271">
        <ele>1922.2574463</ele>
        <time>2009-12-06T10:46:06Z</time>
      </trkpt>
      <trkpt lat="45.23753" lon="6.01263">
        <ele>1915.4356689</ele>
        <time>2009-12-06T10:46:10Z</time>
      </trkpt>
      <trkpt lat="45.23751" lon="6.01251">
        <ele>1910.8239746</ele>
        <time>2009-12-06T10:46:13Z</time>
      </trkpt>
      <trkpt lat="45.23754" lon="6.01241">
        <ele>1904.6599121</ele>
        <time>2009-12-06T10:46:15Z</time>
      </trkpt>
      <trkpt lat="45.23761" lon="6.01241">
        <ele>1901.4946289</ele>
        <time>2009-12-06T10:46:32Z</time>
      </trkpt>
      <trkpt lat="45.23762" lon="6.0124">
        <ele>1900.8775635</ele>
        <time>2009-12-06T10:46:37Z</time>
      </trkpt>
      <trkpt lat="45.23768" lon="6.01238">
        <ele>1897.067627</ele>
        <time>2009-12-06T10:46:59Z</time>
      </trkpt>
      <trkpt lat="45.23769" lon="6.01234">
        <ele>1894.9431152</ele>
        <time>2009-12-06T10:47:24Z</time>
      </trkpt>
      <trkpt lat="45.23765" lon="6.01222">
        <ele>1891.0255127</ele>
        <time>2009-12-06T10:47:28Z</time>
      </trkpt>
      <trkpt lat="45.23762" lon="6.01207">
        <ele>1887.1335449</ele>
        <time>2009-12-06T10:47:36Z</time>
      </trkpt>
      <trkpt lat="45.23769" lon="6.01205">
        <ele>1883.8189697</ele>
        <time>2009-12-06T10:47:43Z</time>
      </trkpt>
      <trkpt lat="45.23765" lon="6.0121">
        <ele>1886.8569336</ele>
        <time>2009-12-06T10:48:29Z</time>
      </trkpt>
      <trkpt lat="45.23773" lon="6.01209">
        <ele>1883.7976074</ele>
        <time>2009-12-06T10:48:36Z</time>
      </trkpt>
      <trkpt lat="45.2377" lon="6.01206">
        <ele>1883.7724609</ele>
        <time>2009-12-06T10:49:04Z</time>
      </trkpt>
      <trkpt lat="45.23761" lon="6.01185">
        <ele>1880.142334</ele>
        <time>2009-12-06T10:49:12Z</time>
      </trkpt>
      <trkpt lat="45.23762" lon="6.01177">
        <ele>1877.0958252</ele>
        <time>2009-12-06T10:49:13Z</time>
      </trkpt>
      <trkpt lat="45.23761" lon="6.01176">
        <ele>1877.2722168</ele>
        <time>2009-12-06T10:49:22Z</time>
      </trkpt>
      <trkpt lat="45.2376" lon="6.0117">
        <ele>1875.6706543</ele>
        <time>2009-12-06T10:50:02Z</time>
      </trkpt>
      <trkpt lat="45.23764" lon="6.01163">
        <ele>1871.1611328</ele>
        <time>2009-12-06T10:50:05Z</time>
      </trkpt>
      <trkpt lat="45.23755" lon="6.01157">
        <ele>1873.6804199</ele>
        <time>2009-12-06T10:50:25Z</time>
      </trkpt>
      <trkpt lat="45.23755" lon="6.01157">
        <ele>1873.6629639</ele>
        <time>2009-12-06T10:50:34Z</time>
      </trkpt>
      <trkpt lat="45.23755" lon="6.01156">
        <ele>1873.7878418</ele>
        <time>2009-12-06T10:50:58Z</time>
      </trkpt>
      <trkpt lat="45.23751" lon="6.01104">
        <ele>1856.2050781</ele>
        <time>2009-12-06T10:51:05Z</time>
      </trkpt>
      <trkpt lat="45.23756" lon="6.01097">
        <ele>1851.7808838</ele>
        <time>2009-12-06T10:51:09Z</time>
      </trkpt>
      <trkpt lat="45.23758" lon="6.01104">
        <ele>1852.0003662</ele>
        <time>2009-12-06T10:51:53Z</time>
      </trkpt>
      <trkpt lat="45.2375" lon="6.01103">
        <ele>1856.8406982</ele>
        <time>2009-12-06T10:52:09Z</time>
      </trkpt>
      <trkpt lat="45.23766" lon="6.01108">
        <ele>1848.3154297</ele>
        <time>2009-12-06T10:52:14Z</time>
      </trkpt>
      <trkpt lat="45.23783" lon="6.01114">
        <ele>1841.854126</ele>
        <time>2009-12-06T10:52:21Z</time>
      </trkpt>
      <trkpt lat="45.23791" lon="6.01108">
        <ele>1837.9550781</ele>
        <time>2009-12-06T10:52:23Z</time>
      </trkpt>
      <trkpt lat="45.23791" lon="6.01103">
        <ele>1836.9349365</ele>
        <time>2009-12-06T10:52:24Z</time>
      </trkpt>
      <trkpt lat="45.2379" lon="6.01087">
        <ele>1833.4978027</ele>
        <time>2009-12-06T10:52:27Z</time>
      </trkpt>
      <trkpt lat="45.23796" lon="6.01081">
        <ele>1830.0319824</ele>
        <time>2009-12-06T10:52:31Z</time>
      </trkpt>
      <trkpt lat="45.23801" lon="6.0107">
        <ele>1825.560791</ele>
        <time>2009-12-06T10:52:37Z</time>
      </trkpt>
      <trkpt lat="45.23801" lon="6.01071">
        <ele>1825.833252</ele>
        <time>2009-12-06T10:52:38Z</time>
      </trkpt>
      <trkpt lat="45.23801" lon="6.01072">
        <ele>1826.2648926</ele>
        <time>2009-12-06T10:52:39Z</time>
      </trkpt>
      <trkpt lat="45.23809" lon="6.01075">
        <ele>1823.4465332</ele>
        <time>2009-12-06T10:52:56Z</time>
      </trkpt>
      <trkpt lat="45.23819" lon="6.01082">
        <ele>1821.0543213</ele>
        <time>2009-12-06T10:53:07Z</time>
      </trkpt>
      <trkpt lat="45.23838" lon="6.01075">
        <ele>1811.5766602</ele>
        <time>2009-12-06T10:53:11Z</time>
      </trkpt>
      <trkpt lat="45.23849" lon="6.01066">
        <ele>1804.9838867</ele>
        <time>2009-12-06T10:53:13Z</time>
      </trkpt>
      <trkpt lat="45.23855" lon="6.01063">
        <ele>1801.8314209</ele>
        <time>2009-12-06T10:53:14Z</time>
      </trkpt>
      <trkpt lat="45.23869" lon="6.01046">
        <ele>1794.2520752</ele>
        <time>2009-12-06T10:53:19Z</time>
      </trkpt>
      <trkpt lat="45.23872" lon="6.01041">
        <ele>1792.947998</ele>
        <time>2009-12-06T10:54:46Z</time>
      </trkpt>
      <trkpt lat="45.23882" lon="6.01029">
        <ele>1788.74646</ele>
        <time>2009-12-06T10:54:50Z</time>
      </trkpt>
      <trkpt lat="45.23898" lon="6.01004">
        <ele>1778.973877</ele>
        <time>2009-12-06T10:54:58Z</time>
      </trkpt>
      <trkpt lat="45.23901" lon="6.00993">
        <ele>1775.7001953</ele>
        <time>2009-12-06T10:55:00Z</time>
      </trkpt>
      <trkpt lat="45.23903" lon="6.00973">
        <ele>1771.8621826</ele>
        <time>2009-12-06T10:55:03Z</time>
      </trkpt>
      <trkpt lat="45.23911" lon="6.00953">
        <ele>1765.9473877</ele>
        <time>2009-12-06T10:55:08Z</time>
      </trkpt>
      <trkpt lat="45.23919" lon="6.00934">
        <ele>1760.9324951</ele>
        <time>2009-12-06T10:55:12Z</time>
      </trkpt>
      <trkpt lat="45.23926" lon="6.00924">
        <ele>1757.5991211</ele>
        <time>2009-12-06T10:55:15Z</time>
      </trkpt>
      <trkpt lat="45.23943" lon="6.00903">
        <ele>1751.4217529</ele>
        <time>2009-12-06T10:55:25Z</time>
      </trkpt>
      <trkpt lat="45.23951" lon="6.00894">
        <ele>1750.3901367</ele>
        <time>2009-12-06T10:55:29Z</time>
      </trkpt>
      <trkpt lat="45.23951" lon="6.00896">
        <ele>1750.5310059</ele>
        <time>2009-12-06T10:55:44Z</time>
      </trkpt>
      <trkpt lat="45.23956" lon="6.0088">
        <ele>1749.2570801</ele>
        <time>2009-12-06T10:56:33Z</time>
      </trkpt>
      <trkpt lat="45.23955" lon="6.00878">
        <ele>1749.029541</ele>
        <time>2009-12-06T10:56:38Z</time>
      </trkpt>
      <trkpt lat="45.2397" lon="6.00852">
        <ele>1746.0670166</ele>
        <time>2009-12-06T10:57:16Z</time>
      </trkpt>
      <trkpt lat="45.2399" lon="6.00823">
        <ele>1740.9025879</ele>
        <time>2009-12-06T10:57:29Z</time>
      </trkpt>
      <trkpt lat="45.23991" lon="6.00823">
        <ele>1740.6164551</ele>
        <time>2009-12-06T10:57:30Z</time>
      </trkpt>
      <trkpt lat="45.24006" lon="6.00807">
        <ele>1734.7003174</ele>
        <time>2009-12-06T10:57:37Z</time>
      </trkpt>
      <trkpt lat="45.24012" lon="6.00796">
        <ele>1728.4794922</ele>
        <time>2009-12-06T10:57:42Z</time>
      </trkpt>
      <trkpt lat="45.24021" lon="6.00799">
        <ele>1725.1972656</ele>
        <time>2009-12-06T10:57:44Z</time>
      </trkpt>
      <trkpt lat="45.24028" lon="6.00806">
        <ele>1724.2506104</ele>
        <time>2009-12-06T10:58:01Z</time>
      </trkpt>
      <trkpt lat="45.24028" lon="6.00805">
        <ele>1723.8590088</ele>
        <time>2009-12-06T10:59:21Z</time>
      </trkpt>
      <trkpt lat="45.24039" lon="6.00801">
        <ele>1720.5687256</ele>
        <time>2009-12-06T10:59:25Z</time>
      </trkpt>
      <trkpt lat="45.24042" lon="6.00802">
        <ele>1720.3435059</ele>
        <time>2009-12-06T10:59:26Z</time>
      </trkpt>
      <trkpt lat="45.24059" lon="6.00813">
        <ele>1717.7525635</ele>
        <time>2009-12-06T10:59:47Z</time>
      </trkpt>
      <trkpt lat="45.2406" lon="6.00813">
        <ele>1717.4862061</ele>
        <time>2009-12-06T11:00:21Z</time>
      </trkpt>
      <trkpt lat="45.2406" lon="6.00813">
        <ele>1717.5111084</ele>
        <time>2009-12-06T11:00:23Z</time>
      </trkpt>
      <trkpt lat="45.24062" lon="6.00819">
        <ele>1716.3425293</ele>
        <time>2009-12-06T11:00:34Z</time>
      </trkpt>
      <trkpt lat="45.24079" lon="6.00837">
        <ele>1709.7324219</ele>
        <time>2009-12-06T11:00:51Z</time>
      </trkpt>
      <trkpt lat="45.24088" lon="6.00842">
        <ele>1705.5820313</ele>
        <time>2009-12-06T11:00:53Z</time>
      </trkpt>
      <trkpt lat="45.24099" lon="6.00847">
        <ele>1700.6228027</ele>
        <time>2009-12-06T11:00:55Z</time>
      </trkpt>
      <trkpt lat="45.24107" lon="6.00852">
        <ele>1696.6367188</ele>
        <time>2009-12-06T11:00:57Z</time>
      </trkpt>
      <trkpt lat="45.2412" lon="6.00856">
        <ele>1691.345459</ele>
        <time>2009-12-06T11:01:01Z</time>
      </trkpt>
      <trkpt lat="45.24129" lon="6.00857">
        <ele>1688.0882568</ele>
        <time>2009-12-06T11:01:03Z</time>
      </trkpt>
      <trkpt lat="45.24146" lon="6.0085">
        <ele>1680.9191895</ele>
        <time>2009-12-06T11:01:06Z</time>
      </trkpt>
      <trkpt lat="45.24152" lon="6.00841">
        <ele>1677.7722168</ele>
        <time>2009-12-06T11:01:08Z</time>
      </trkpt>
      <trkpt lat="45.24162" lon="6.0083">
        <ele>1674.1612549</ele>
        <time>2009-12-06T11:01:11Z</time>
      </trkpt>
      <trkpt lat="45.24171" lon="6.00819">
        <ele>1671.3317871</ele>
        <time>2009-12-06T11:01:14Z</time>
      </trkpt>
      <trkpt lat="45.24185" lon="6.00802">
        <ele>1667.2407227</ele>
        <time>2009-12-06T11:01:17Z</time>
      </trkpt>
      <trkpt lat="45.242" lon="6.00768">
        <ele>1660.708252</ele>
        <time>2009-12-06T11:01:21Z</time>
      </trkpt>
      <trkpt lat="45.24205" lon="6.00741">
        <ele>1656.4394531</ele>
        <time>2009-12-06T11:01:24Z</time>
      </trkpt>
      <trkpt lat="45.24215" lon="6.00716">
        <ele>1653.3592529</ele>
        <time>2009-12-06T11:01:28Z</time>
      </trkpt>
      <trkpt lat="45.24225" lon="6.00694">
        <ele>1650.0031738</ele>
        <time>2009-12-06T11:01:32Z</time>
      </trkpt>
      <trkpt lat="45.24243" lon="6.00656">
        <ele>1642.8157959</ele>
        <time>2009-12-06T11:01:37Z</time>
      </trkpt>
      <trkpt lat="45.24253" lon="6.00634">
        <ele>1637.8188477</ele>
        <time>2009-12-06T11:01:40Z</time>
      </trkpt>
      <trkpt lat="45.24274" lon="6.00611">
        <ele>1630.633667</ele>
        <time>2009-12-06T11:01:44Z</time>
      </trkpt>
      <trkpt lat="45.243" lon="6.00592">
        <ele>1627.0948486</ele>
        <time>2009-12-06T11:01:49Z</time>
      </trkpt>
      <trkpt lat="45.24315" lon="6.00574">
        <ele>1623.815918</ele>
        <time>2009-12-06T11:01:52Z</time>
      </trkpt>
      <trkpt lat="45.24324" lon="6.00563">
        <ele>1621.6713867</ele>
        <time>2009-12-06T11:01:54Z</time>
      </trkpt>
      <trkpt lat="45.24351" lon="6.00537">
        <ele>1620.0311279</ele>
        <time>2009-12-06T11:02:24Z</time>
      </trkpt>
      <trkpt lat="45.24349" lon="6.00537">
        <ele>1619.6601563</ele>
        <time>2009-12-06T11:03:20Z</time>
      </trkpt>
      <trkpt lat="45.24374" lon="6.00504">
        <ele>1611.9537354</ele>
        <time>2009-12-06T11:03:33Z</time>
      </trkpt>
      <trkpt lat="45.24393" lon="6.00484">
        <ele>1605.102417</ele>
        <time>2009-12-06T11:03:39Z</time>
      </trkpt>
      <trkpt lat="45.24416" lon="6.00453">
        <ele>1598.4085693</ele>
        <time>2009-12-06T11:03:49Z</time>
      </trkpt>
      <trkpt lat="45.24432" lon="6.00416">
        <ele>1592.2578125</ele>
        <time>2009-12-06T11:03:59Z</time>
      </trkpt>
      <trkpt lat="45.24435" lon="6.00411">
        <ele>1591.9598389</ele>
        <time>2009-12-06T11:04:00Z</time>
      </trkpt>
      <trkpt lat="45.24449" lon="6.00383">
        <ele>1590.151123</ele>
        <time>2009-12-06T11:04:04Z</time>
      </trkpt>
      <trkpt lat="45.24453" lon="6.00374">
        <ele>1589.6258545</ele>
        <time>2009-12-06T11:04:05Z</time>
      </trkpt>
      <trkpt lat="45.24464" lon="6.00339">
        <ele>1585.246582</ele>
        <time>2009-12-06T11:04:09Z</time>
      </trkpt>
      <trkpt lat="45.24479" lon="6.00297">
        <ele>1579.9781494</ele>
        <time>2009-12-06T11:04:15Z</time>
      </trkpt>
      <trkpt lat="45.24501" lon="6.00258">
        <ele>1572.7252197</ele>
        <time>2009-12-06T11:04:38Z</time>
      </trkpt>
      <trkpt lat="45.24521" lon="6.00234">
        <ele>1578.5228271</ele>
        <time>2009-12-06T11:04:48Z</time>
      </trkpt>
      <trkpt lat="45.24538" lon="6.00211">
        <ele>1576.4534912</ele>
        <time>2009-12-06T11:04:56Z</time>
      </trkpt>
      <trkpt lat="45.24565" lon="6.00188">
        <ele>1572.7050781</ele>
        <time>2009-12-06T11:05:03Z</time>
      </trkpt>
      <trkpt lat="45.24568" lon="6.00187">
        <ele>1572.9084473</ele>
        <time>2009-12-06T11:05:16Z</time>
      </trkpt>
      <trkpt lat="45.24569" lon="6.00187">
        <ele>1572.7855225</ele>
        <time>2009-12-06T11:05:23Z</time>
      </trkpt>
      <trkpt lat="45.24572" lon="6.00168">
        <ele>1567.0142822</ele>
        <time>2009-12-06T11:05:28Z</time>
      </trkpt>
      <trkpt lat="45.2457" lon="6.00156">
        <ele>1562.9848633</ele>
        <time>2009-12-06T11:05:30Z</time>
      </trkpt>
      <trkpt lat="45.24567" lon="6.00144">
        <ele>1559.1672363</ele>
        <time>2009-12-06T11:05:32Z</time>
      </trkpt>
      <trkpt lat="45.24568" lon="6.00127">
        <ele>1554.1958008</ele>
        <time>2009-12-06T11:05:35Z</time>
      </trkpt>
      <trkpt lat="45.24568" lon="6.00109">
        <ele>1549.279541</ele>
        <time>2009-12-06T11:05:38Z</time>
      </trkpt>
      <trkpt lat="45.24569" lon="6.00096">
        <ele>1545.5029297</ele>
        <time>2009-12-06T11:05:40Z</time>
      </trkpt>
      <trkpt lat="45.24572" lon="6.00078">
        <ele>1540.5761719</ele>
        <time>2009-12-06T11:05:43Z</time>
      </trkpt>
      <trkpt lat="45.2458" lon="6.00064">
        <ele>1536.9641113</ele>
        <time>2009-12-06T11:05:46Z</time>
      </trkpt>
      <trkpt lat="45.24581" lon="6.00056">
        <ele>1534.2416992</ele>
        <time>2009-12-06T11:06:09Z</time>
      </trkpt>
      <trkpt lat="45.24586" lon="6.0004">
        <ele>1529.2926025</ele>
        <time>2009-12-06T11:06:12Z</time>
      </trkpt>
      <trkpt lat="45.24589" lon="6.00022">
        <ele>1522.7585449</ele>
        <time>2009-12-06T11:06:16Z</time>
      </trkpt>
      <trkpt lat="45.24588" lon="6.00008">
        <ele>1517.9660645</ele>
        <time>2009-12-06T11:06:19Z</time>
      </trkpt>
      <trkpt lat="45.24587" lon="5.99996">
        <ele>1513.7310791</ele>
        <time>2009-12-06T11:06:22Z</time>
      </trkpt>
      <trkpt lat="45.24585" lon="5.99979">
        <ele>1508.322998</ele>
        <time>2009-12-06T11:06:26Z</time>
      </trkpt>
      <trkpt lat="45.24586" lon="5.99963">
        <ele>1503.7572021</ele>
        <time>2009-12-06T11:06:29Z</time>
      </trkpt>
      <trkpt lat="45.24595" lon="5.99938">
        <ele>1497.5549316</ele>
        <time>2009-12-06T11:06:35Z</time>
      </trkpt>
      <trkpt lat="45.24599" lon="5.99936">
        <ele>1497.5284424</ele>
        <time>2009-12-06T11:06:36Z</time>
      </trkpt>
      <trkpt lat="45.24599" lon="5.99924">
        <ele>1493.7833252</ele>
        <time>2009-12-06T11:06:39Z</time>
      </trkpt>
      <trkpt lat="45.24608" lon="5.99901">
        <ele>1486.9853516</ele>
        <time>2009-12-06T11:06:45Z</time>
      </trkpt>
      <trkpt lat="45.24613" lon="5.9989">
        <ele>1483.4052734</ele>
        <time>2009-12-06T11:06:48Z</time>
      </trkpt>
      <trkpt lat="45.24615" lon="5.99876">
        <ele>1476.854248</ele>
        <time>2009-12-06T11:06:51Z</time>
      </trkpt>
      <trkpt lat="45.24617" lon="5.99868">
        <ele>1473.0389404</ele>
        <time>2009-12-06T11:06:54Z</time>
      </trkpt>
      <trkpt lat="45.24619" lon="5.99858">
        <ele>1468.5609131</ele>
        <time>2009-12-06T11:06:57Z</time>
      </trkpt>
      <trkpt lat="45.24625" lon="5.99848">
        <ele>1464.7399902</ele>
        <time>2009-12-06T11:07:00Z</time>
      </trkpt>
      <trkpt lat="45.24629" lon="5.99841">
        <ele>1462.3364258</ele>
        <time>2009-12-06T11:07:37Z</time>
      </trkpt>
      <trkpt lat="45.24647" lon="5.9983">
        <ele>1458.3009033</ele>
        <time>2009-12-06T11:07:43Z</time>
      </trkpt>
      <trkpt lat="45.24659" lon="5.99818">
        <ele>1454.2019043</ele>
        <time>2009-12-06T11:07:45Z</time>
      </trkpt>
      <trkpt lat="45.24666" lon="5.9981">
        <ele>1451.1466064</ele>
        <time>2009-12-06T11:07:46Z</time>
      </trkpt>
      <trkpt lat="45.24684" lon="5.99795">
        <ele>1441.0703125</ele>
        <time>2009-12-06T11:07:48Z</time>
      </trkpt>
      <trkpt lat="45.24693" lon="5.99789">
        <ele>1437.0317383</ele>
        <time>2009-12-06T11:07:49Z</time>
      </trkpt>
      <trkpt lat="45.24707" lon="5.99777">
        <ele>1434.9554443</ele>
        <time>2009-12-06T11:07:51Z</time>
      </trkpt>
      <trkpt lat="45.24738" lon="5.99744">
        <ele>1431.9211426</ele>
        <time>2009-12-06T11:08:15Z</time>
      </trkpt>
      <trkpt lat="45.24754" lon="5.99731">
        <ele>1431.225708</ele>
        <time>2009-12-06T11:08:21Z</time>
      </trkpt>
      <trkpt lat="45.24763" lon="5.99721">
        <ele>1430.7536621</ele>
        <time>2009-12-06T11:08:23Z</time>
      </trkpt>
      <trkpt lat="45.248" lon="5.99675">
        <ele>1427.7490234</ele>
        <time>2009-12-06T11:08:39Z</time>
      </trkpt>
      <trkpt lat="45.24824" lon="5.99639">
        <ele>1424.6796875</ele>
        <time>2009-12-06T11:08:52Z</time>
      </trkpt>
      <trkpt lat="45.24855" lon="5.99605">
        <ele>1420.5847168</ele>
        <time>2009-12-06T11:09:04Z</time>
      </trkpt>
      <trkpt lat="45.24872" lon="5.99583">
        <ele>1414.8647461</ele>
        <time>2009-12-06T11:09:10Z</time>
      </trkpt>
      <trkpt lat="45.24884" lon="5.99566">
        <ele>1409.501709</ele>
        <time>2009-12-06T11:09:14Z</time>
      </trkpt>
      <trkpt lat="45.24889" lon="5.99562">
        <ele>1408.4077148</ele>
        <time>2009-12-06T11:09:15Z</time>
      </trkpt>
      <trkpt lat="45.24937" lon="5.99523">
        <ele>1405.182373</ele>
        <time>2009-12-06T11:09:31Z</time>
      </trkpt>
      <trkpt lat="45.24947" lon="5.99507">
        <ele>1402.8570557</ele>
        <time>2009-12-06T11:09:39Z</time>
      </trkpt>
      <trkpt lat="45.24927" lon="5.99513">
        <ele>1401.6517334</ele>
        <time>2009-12-06T11:09:54Z</time>
      </trkpt>
      <trkpt lat="45.2486" lon="5.99511">
        <ele>1394.3531494</ele>
        <time>2009-12-06T11:10:21Z</time>
      </trkpt>
      <trkpt lat="45.24843" lon="5.99515">
        <ele>1394.5593262</ele>
        <time>2009-12-06T11:10:29Z</time>
      </trkpt>
      <trkpt lat="45.2482" lon="5.99512">
        <ele>1390.9016113</ele>
        <time>2009-12-06T11:10:37Z</time>
      </trkpt>
      <trkpt lat="45.24782" lon="5.99507">
        <ele>1384.868042</ele>
        <time>2009-12-06T11:11:01Z</time>
      </trkpt>
      <trkpt lat="45.24775" lon="5.99508">
        <ele>1384.4564209</ele>
        <time>2009-12-06T11:11:04Z</time>
      </trkpt>
      <trkpt lat="45.24757" lon="5.99503">
        <ele>1379.956665</ele>
        <time>2009-12-06T11:11:08Z</time>
      </trkpt>
      <trkpt lat="45.24725" lon="5.99495">
        <ele>1372.7059326</ele>
        <time>2009-12-06T11:11:25Z</time>
      </trkpt>
      <trkpt lat="45.24728" lon="5.99492">
        <ele>1371.6633301</ele>
        <time>2009-12-06T11:11:33Z</time>
      </trkpt>
      <trkpt lat="45.2474" lon="5.9948">
        <ele>1370.0206299</ele>
        <time>2009-12-06T11:11:40Z</time>
      </trkpt>
      <trkpt lat="45.24765" lon="5.99461">
        <ele>1366.9609375</ele>
        <time>2009-12-06T11:12:04Z</time>
      </trkpt>
      <trkpt lat="45.24758" lon="5.99443">
        <ele>1360.5517578</ele>
        <time>2009-12-06T11:14:24Z</time>
      </trkpt>
    </trkseg>
  </trk>
</gpx>